Time;durP1;ratioP1;P1;durP2;ratioP2;P2;SDS_P1;SDS_P2;PMS_P1;PMS_P2;Temp;Humidity;BMP_temperature;BMP_pressure;BME280_temperature;BME280_humidity;BME280_pressure;Samples;Min_cycle;Max_cycle;Signal;HPM_P1;HPM_P2
2022/09/22 00:01:43;;;;;;;5.78;5.05;;;;;;;;;;4975544;28;20055;-66
2022/09/22 00:04:11;;;;;;;7.00;4.95;;;;;;;;;;4975665;28;20069;-66
2022/09/22 00:06:39;;;;;;;4.90;4.40;;;;;;;;;;4975444;28;20054;-66
2022/09/22 00:09:07;;;;;;;5.93;4.82;;;;;;;;;;4975322;28;20055;-66
2022/09/22 00:11:36;;;;;;;5.15;4.65;;;;;;;;;;4975637;28;20043;-66
2022/09/22 00:14:05;;;;;;;5.85;5.10;;;;;;;;;;4975401;28;20491;-66
2022/09/22 00:16:35;;;;;;;5.18;4.68;;;;;;;;;;4975386;28;20058;-66
2022/09/22 00:19:04;;;;;;;5.32;4.82;;;;;;;;;;4974343;28;20109;-65
2022/09/22 00:21:31;;;;;;;6.63;5.15;;;;;;;;;;4975274;28;20514;-65
2022/09/22 00:24:00;;;;;;;5.63;5.00;;;;;;;;;;4975037;28;20046;-66
2022/09/22 00:26:27;;;;;;;5.32;4.82;;;;;;;;;;4972504;28;20050;-66
2022/09/22 00:28:53;;;;;;;5.38;4.80;;;;;;;;;;4971995;28;20050;-66
2022/09/22 00:31:21;;;;;;;7.20;5.57;;;;;;;;;;4973449;28;20058;-66
2022/09/22 00:33:48;;;;;;;6.78;5.00;;;;;;;;;;4974582;28;20054;-66
2022/09/22 00:36:15;;;;;;;6.28;5.00;;;;;;;;;;4974948;28;20512;-66
2022/09/22 00:38:42;;;;;;;5.35;4.85;;;;;;;;;;4974771;28;20068;-66
2022/09/22 00:41:15;;;;;;;6.93;5.03;;;;;;;;;;4975178;28;20122;-66
2022/09/22 00:43:45;;;;;;;5.40;4.65;;;;;;;;;;4974759;28;20082;-66
2022/09/22 00:46:24;;;;;;;6.18;5.15;;;;;;;;;;4974908;28;20042;-66
2022/09/22 00:48:53;;;;;;;5.28;4.78;;;;;;;;;;4974648;28;20047;-66
2022/09/22 00:51:21;;;;;;;5.50;4.78;;;;;;;;;;4974671;28;20050;-65
2022/09/22 00:53:48;;;;;;;5.95;4.60;;;;;;;;;;4974599;28;20059;-65
2022/09/22 00:56:16;;;;;;;6.47;5.00;;;;;;;;;;4974589;28;20054;-65
2022/09/22 00:58:46;;;;;;;5.93;5.20;;;;;;;;;;4974762;28;20054;-66
2022/09/22 01:01:14;;;;;;;8.40;5.65;;;;;;;;;;4974645;28;20407;-65
2022/09/22 01:03:42;;;;;;;6.43;5.53;;;;;;;;;;4974356;28;20047;-65
2022/09/22 01:06:11;;;;;;;7.13;5.00;;;;;;;;;;4974725;28;20056;-66
2022/09/22 01:08:38;;;;;;;6.50;5.78;;;;;;;;;;4974275;28;20053;-66
2022/09/22 01:11:05;;;;;;;6.35;4.78;;;;;;;;;;4974598;28;20051;-65
2022/09/22 01:13:40;;;;;;;5.35;4.85;;;;;;;;;;4974530;28;20046;-65
2022/09/22 01:16:07;;;;;;;5.43;4.78;;;;;;;;;;4974535;28;20055;-65
2022/09/22 01:19:06;;;;;;;5.03;4.55;;;;;;;;;;4974134;28;20470;-65
2022/09/22 01:21:35;;;;;;;6.03;4.43;;;;;;;;;;4943220;28;20055;-65
2022/09/22 01:24:11;;;;;;;5.40;4.80;;;;;;;;;;4973367;28;20046;-66
2022/09/22 01:26:48;;;;;;;7.15;4.82;;;;;;;;;;4974169;28;20047;-65
2022/09/22 01:29:14;;;;;;;5.47;4.43;;;;;;;;;;4973991;28;20051;-65
2022/09/22 01:32:01;;;;;;;5.50;4.90;;;;;;;;;;4974170;28;20047;-65
2022/09/22 01:34:30;;;;;;;5.40;4.35;;;;;;;;;;4973940;28;20047;-66
2022/09/22 01:37:10;;;;;;;6.03;4.70;;;;;;;;;;4973712;28;20058;-66
2022/09/22 01:39:45;;;;;;;5.93;4.88;;;;;;;;;;4973833;28;20050;-66
2022/09/22 01:42:19;;;;;;;6.00;5.03;;;;;;;;;;4972882;28;20058;-66
2022/09/22 01:44:52;;;;;;;5.95;5.10;;;;;;;;;;4973654;28;20054;-66
2022/09/22 01:47:54;;;;;;;5.63;4.95;;;;;;;;;;4973962;28;20061;-66
2022/09/22 01:50:32;;;;;;;8.15;4.82;;;;;;;;;;4932785;29;20383;-66
2022/09/22 01:52:58;;;;;;;;;;;;;;;;;;4962590;28;20043;-66
2022/09/22 01:55:27;;;;;;;6.68;5.07;;;;;;;;;;4973581;28;20312;-66
2022/09/22 01:57:59;;;;;;;6.80;5.28;;;;;;;;;;4973800;28;20057;-66
2022/09/22 02:00:25;;;;;;;5.82;5.18;;;;;;;;;;4973432;28;20058;-66
2022/09/22 02:03:10;;;;;;;6.75;5.32;;;;;;;;;;4973715;28;20138;-66
2022/09/22 02:05:42;;;;;;;5.57;4.60;;;;;;;;;;4973252;28;20516;-65
2022/09/22 02:08:12;;;;;;;6.30;5.00;;;;;;;;;;4973175;28;20062;-65
2022/09/22 02:10:41;;;;;;;5.63;5.03;;;;;;;;;;4973783;28;20043;-65
2022/09/22 02:13:07;;;;;;;6.35;5.32;;;;;;;;;;4973238;28;20057;-65
2022/09/22 02:18:25;;;;;;;6.03;5.30;;;;;;;;;;4973226;28;20058;-65
2022/09/22 02:20:52;;;;;;;6.00;5.30;;;;;;;;;;4973363;28;20063;-65
2022/09/22 02:23:18;;;;;;;6.40;5.50;;;;;;;;;;4973149;28;20126;-65
2022/09/22 02:25:45;;;;;;;6.07;5.05;;;;;;;;;;4972977;28;20058;-65
2022/09/22 02:28:13;;;;;;;5.97;5.03;;;;;;;;;;4973038;28;20042;-65
2022/09/22 02:30:40;;;;;;;5.82;5.05;;;;;;;;;;4973011;28;20509;-67
2022/09/22 02:33:21;;;;;;;8.75;5.90;;;;;;;;;;4973155;28;20129;-65
2022/09/22 02:35:47;;;;;;;;;;;;;;;;;;4972581;28;20377;-66
2022/09/22 02:38:20;;;;;;;9.27;5.38;;;;;;;;;;4973098;28;19926;-66
2022/09/22 02:40:49;;;;;;;6.28;5.45;;;;;;;;;;4972966;28;20422;-66
2022/09/22 02:43:23;;;;;;;7.00;5.60;;;;;;;;;;4972971;28;20077;-66
2022/09/22 02:45:56;;;;;;;7.00;5.40;;;;;;;;;;4972895;28;20043;-66
2022/09/22 02:48:24;;;;;;;6.07;5.47;;;;;;;;;;4972723;28;20051;-66
2022/09/22 02:50:51;;;;;;;6.40;4.85;;;;;;;;;;4973150;28;20051;-65
2022/09/22 02:53:17;;;;;;;6.13;4.90;;;;;;;;;;4972976;28;20429;-66
2022/09/22 02:55:44;;;;;;;4.78;4.35;;;;;;;;;;4972787;28;20506;-66
2022/09/22 02:58:12;;;;;;;5.85;4.80;;;;;;;;;;4972756;28;20061;-66
2022/09/22 03:00:39;;;;;;;5.68;4.65;;;;;;;;;;4972956;28;20061;-65
2022/09/22 03:03:05;;;;;;;7.07;5.65;;;;;;;;;;4972741;28;20495;-65
2022/09/22 03:05:32;;;;;;;6.68;5.13;;;;;;;;;;4972844;28;20051;-65
2022/09/22 03:07:58;;;;;;;6.78;4.88;;;;;;;;;;4972670;28;20050;-65
2022/09/22 03:10:24;;;;;;;6.72;5.25;;;;;;;;;;4972748;28;20051;-66
2022/09/22 03:12:51;;;;;;;5.60;5.05;;;;;;;;;;4973185;28;20054;-65
2022/09/22 03:15:37;;;;;;;6.53;5.50;;;;;;;;;;4972561;28;20066;-65
2022/09/22 03:18:04;;;;;;;6.75;5.13;;;;;;;;;;4972891;28;20133;-65
2022/09/22 03:20:30;;;;;;;9.30;5.05;;;;;;;;;;4972521;28;20050;-65
2022/09/22 03:22:56;;;;;;;9.25;5.20;;;;;;;;;;4972540;28;20061;-65
2022/09/22 03:25:23;;;;;;;6.57;4.82;;;;;;;;;;4972408;28;20066;-65
2022/09/22 03:27:49;;;;;;;5.63;4.87;;;;;;;;;;4972772;28;20047;-65
2022/09/22 03:30:16;;;;;;;6.93;5.18;;;;;;;;;;4972716;28;20047;-65
2022/09/22 03:32:42;;;;;;;6.22;5.15;;;;;;;;;;4972409;28;20055;-65
2022/09/22 03:35:09;;;;;;;6.00;5.30;;;;;;;;;;4972753;28;20061;-65
2022/09/22 03:37:35;;;;;;;6.38;5.15;;;;;;;;;;4972656;28;20047;-65
2022/09/22 03:40:02;;;;;;;7.22;5.43;;;;;;;;;;4972391;28;20047;-65
2022/09/22 03:42:29;;;;;;;7.90;5.45;;;;;;;;;;4972326;28;20130;-65
2022/09/22 03:44:55;;;;;;;7.13;5.82;;;;;;;;;;4972719;28;20051;-65
2022/09/22 03:47:22;;;;;;;6.32;5.47;;;;;;;;;;4973936;28;20388;-65
2022/09/22 03:49:48;;;;;;;6.15;5.38;;;;;;;;;;4975719;28;20049;-65
2022/09/22 03:52:14;;;;;;;6.10;5.50;;;;;;;;;;4975944;28;20417;-65
2022/09/22 03:54:41;;;;;;;8.60;6.40;;;;;;;;;;4975737;28;20054;-65
2022/09/22 03:57:07;;;;;;;6.57;5.93;;;;;;;;;;4975892;28;20058;-65
2022/09/22 03:59:33;;;;;;;7.53;6.13;;;;;;;;;;4975923;28;20058;-65
2022/09/22 04:02:01;;;;;;;6.07;5.45;;;;;;;;;;4975773;28;20054;-66
2022/09/22 04:04:28;;;;;;;6.03;5.25;;;;;;;;;;4975712;28;20051;-65
2022/09/22 04:06:54;;;;;;;7.22;5.40;;;;;;;;;;4975638;28;20054;-66
2022/09/22 04:09:20;;;;;;;5.80;5.20;;;;;;;;;;4975455;28;20058;-65
2022/09/22 04:11:47;;;;;;;5.65;5.15;;;;;;;;;;4975455;28;20507;-66
2022/09/22 04:14:13;;;;;;;6.45;4.90;;;;;;;;;;4975409;28;20510;-65
2022/09/22 04:16:41;;;;;;;5.78;5.10;;;;;;;;;;4975593;28;20055;-65
2022/09/22 04:19:08;;;;;;;6.80;5.53;;;;;;;;;;4975603;28;20051;-65
2022/09/22 04:21:34;;;;;;;6.90;6.03;;;;;;;;;;4975382;28;20058;-65
2022/09/22 04:24:01;;;;;;;10.32;6.15;;;;;;;;;;4975430;28;20092;-65
2022/09/22 04:26:27;;;;;;;9.10;6.47;;;;;;;;;;4975181;28;20490;-65
2022/09/22 04:28:54;;;;;;;9.18;7.05;;;;;;;;;;4975620;28;20057;-65
2022/09/22 04:31:21;;;;;;;8.73;7.32;;;;;;;;;;4975290;28;20047;-65
2022/09/22 04:33:48;;;;;;;7.18;6.43;;;;;;;;;;4975205;28;20050;-65
2022/09/22 04:36:14;;;;;;;9.13;6.80;;;;;;;;;;4975033;28;20057;-65
2022/09/22 04:38:40;;;;;;;8.88;6.68;;;;;;;;;;4974982;28;20050;-66
2022/09/22 04:41:07;;;;;;;11.73;8.40;;;;;;;;;;4975154;28;20051;-66
2022/09/22 04:43:33;;;;;;;11.50;8.80;;;;;;;;;;4975163;28;20055;-65
2022/09/22 04:46:00;;;;;;;8.18;7.13;;;;;;;;;;4974987;28;20058;-66
2022/09/22 04:48:26;;;;;;;8.73;6.70;;;;;;;;;;4975184;28;20450;-65
2022/09/22 04:50:53;;;;;;;7.32;6.60;;;;;;;;;;4974749;28;20058;-66
2022/09/22 04:53:19;;;;;;;7.70;6.43;;;;;;;;;;4974932;28;20054;-66
2022/09/22 04:55:47;;;;;;;11.98;7.72;;;;;;;;;;4974911;28;20422;-66
2022/09/22 04:58:14;;;;;;;7.95;7.15;;;;;;;;;;4974126;28;20053;-66
2022/09/22 05:00:40;;;;;;;8.50;7.70;;;;;;;;;;4974558;28;20065;-65
2022/09/22 05:03:07;;;;;;;8.48;7.55;;;;;;;;;;4974543;28;20382;-65
2022/09/22 05:05:34;;;;;;;10.50;8.02;;;;;;;;;;4974717;28;20049;-66
2022/09/22 05:08:00;;;;;;;10.63;8.88;;;;;;;;;;4974405;28;20057;-65
2022/09/22 05:10:31;;;;;;;8.77;7.80;;;;;;;;;;4974759;28;20061;-65
2022/09/22 05:12:57;;;;;;;8.50;7.28;;;;;;;;;;4974350;28;20051;-66
2022/09/22 05:15:24;;;;;;;9.13;7.35;;;;;;;;;;4974625;28;20065;-66
2022/09/22 05:17:51;;;;;;;10.80;8.30;;;;;;;;;;4974499;28;20050;-66
2022/09/22 05:20:18;;;;;;;11.00;7.30;;;;;;;;;;4974214;28;20105;-65
2022/09/22 05:22:46;;;;;;;9.20;8.15;;;;;;;;;;4974422;28;20061;-65
2022/09/22 05:25:13;;;;;;;11.43;8.65;;;;;;;;;;4974307;28;20051;-65
2022/09/22 05:27:47;;;;;;;9.13;8.20;;;;;;;;;;4974034;28;20043;-65
2022/09/22 05:30:13;;;;;;;8.95;8.05;;;;;;;;;;4974206;28;20059;-66
2022/09/22 05:32:43;;;;;;;10.10;8.50;;;;;;;;;;4973918;28;20491;-66
2022/09/22 05:35:11;;;;;;;9.82;8.82;;;;;;;;;;4973951;28;20058;-66
2022/09/22 05:37:37;;;;;;;11.07;9.30;;;;;;;;;;4973805;28;20054;-66
2022/09/22 05:40:05;;;;;;;9.70;8.65;;;;;;;;;;4974051;28;20050;-66
2022/09/22 05:42:32;;;;;;;10.65;9.35;;;;;;;;;;4974100;28;20053;-66
2022/09/22 05:44:59;;;;;;;10.73;8.55;;;;;;;;;;4973707;28;20051;-66
2022/09/22 05:47:25;;;;;;;10.13;8.80;;;;;;;;;;4973945;28;20058;-66
2022/09/22 05:49:51;;;;;;;8.98;7.45;;;;;;;;;;4973723;28;20058;-65
2022/09/22 05:52:18;;;;;;;9.45;7.72;;;;;;;;;;4973903;28;20049;-65
2022/09/22 05:54:44;;;;;;;9.10;7.63;;;;;;;;;;4973376;28;20058;-66
2022/09/22 05:57:10;;;;;;;10.10;8.38;;;;;;;;;;4973739;28;20058;-65
2022/09/22 05:59:37;;;;;;;9.10;8.15;;;;;;;;;;4972850;28;20062;-65
2022/09/22 06:02:06;;;;;;;12.02;8.40;;;;;;;;;;4973165;28;20047;-65
2022/09/22 06:04:51;;;;;;;9.00;8.07;;;;;;;;;;4972939;28;20054;-66
2022/09/22 06:07:19;;;;;;;15.23;8.25;;;;;;;;;;4972801;28;20059;-65
2022/09/22 06:09:46;;;;;;;10.10;7.93;;;;;;;;;;4973177;28;20074;-65
2022/09/22 06:12:13;;;;;;;9.70;8.23;;;;;;;;;;4973447;28;20047;-68
2022/09/22 06:14:39;;;;;;;12.20;8.82;;;;;;;;;;4970294;28;20058;-66
2022/09/22 06:17:09;;;;;;;10.30;8.50;;;;;;;;;;4973144;28;20046;-66
2022/09/22 06:19:36;;;;;;;9.55;8.55;;;;;;;;;;4972822;28;20047;-66
2022/09/22 06:22:03;;;;;;;11.55;8.70;;;;;;;;;;4972862;28;20042;-65
2022/09/22 06:24:29;;;;;;;8.70;7.75;;;;;;;;;;4970128;28;20545;-65
2022/09/22 06:26:56;;;;;;;9.55;8.48;;;;;;;;;;4972881;28;20046;-66
2022/09/22 06:29:22;;;;;;;9.25;8.10;;;;;;;;;;4972669;28;20045;-67
2022/09/22 06:31:48;;;;;;;9.38;7.90;;;;;;;;;;4972981;28;20055;-66
2022/09/22 06:34:15;;;;;;;12.65;7.97;;;;;;;;;;4973300;28;20542;-66
2022/09/22 06:36:44;;;;;;;8.73;7.83;;;;;;;;;;4973024;28;20054;-67
2022/09/22 06:39:11;;;;;;;10.82;8.30;;;;;;;;;;4972434;28;20058;-66
2022/09/22 06:41:37;;;;;;;9.57;8.00;;;;;;;;;;4973105;28;20055;-67
2022/09/22 06:44:04;;;;;;;10.30;8.52;;;;;;;;;;4972259;28;20051;-65
2022/09/22 06:46:32;;;;;;;13.35;10.15;;;;;;;;;;4972214;28;20498;-66
2022/09/22 06:48:59;;;;;;;13.05;10.80;;;;;;;;;;4970668;28;20047;-66
2022/09/22 06:51:26;;;;;;;13.32;10.88;;;;;;;;;;4970759;28;20410;-66
2022/09/22 06:53:56;;;;;;;13.50;10.63;;;;;;;;;;4971821;28;20073;-66
2022/09/22 06:56:24;;;;;;;11.73;9.18;;;;;;;;;;4972787;28;20055;-66
2022/09/22 06:58:51;;;;;;;12.65;9.48;;;;;;;;;;4972602;28;20065;-66
2022/09/22 07:01:35;;;;;;;11.40;10.20;;;;;;;;;;4972827;28;20090;-66
2022/09/22 07:04:02;;;;;;;12.75;11.45;;;;;;;;;;4972727;28;20047;-66
2022/09/22 07:06:28;;;;;;;15.38;12.32;;;;;;;;;;4972667;28;20054;-66
2022/09/22 07:08:55;;;;;;;12.93;11.27;;;;;;;;;;4972388;28;20055;-66
2022/09/22 07:11:22;;;;;;;14.77;10.95;;;;;;;;;;4972676;28;20054;-66
2022/09/22 07:13:50;;;;;;;16.90;12.45;;;;;;;;;;4972562;28;20078;-66
2022/09/22 07:16:17;;;;;;;12.25;10.90;;;;;;;;;;4972718;28;20054;-66
2022/09/22 07:18:45;;;;;;;11.88;10.68;;;;;;;;;;4972844;28;20106;-66
2022/09/22 07:21:11;;;;;;;;;;;;;;;;;;4973243;28;20046;-66
2022/09/22 07:23:39;;;;;;;9.68;8.65;;;;;;;;;;4976584;28;19933;-66
2022/09/22 07:26:07;;;;;;;10.23;9.23;;;;;;;;;;4976172;28;20039;-66
2022/09/22 07:28:33;;;;;;;;;;;;;;;;;;4976869;28;20055;-66
2022/09/22 07:31:07;;;;;;;8.60;7.78;;;;;;;;;;4976292;28;19922;-66
2022/09/22 07:33:34;;;;;;;8.70;7.25;;;;;;;;;;4976560;28;20058;-66
2022/09/22 07:36:03;;;;;;;9.67;8.70;;;;;;;;;;4976107;28;20050;-66
2022/09/22 07:38:35;;;;;;;10.85;8.55;;;;;;;;;;4976388;28;20402;-66
2022/09/22 07:41:02;;;;;;;11.77;7.82;;;;;;;;;;4976091;28;20063;-66
2022/09/22 07:43:29;;;;;;;13.00;7.22;;;;;;;;;;4976141;28;20051;-66
2022/09/22 07:45:56;;;;;;;8.00;6.75;;;;;;;;;;4962607;28;20058;-66
2022/09/22 07:48:44;;;;;;;8.45;6.80;;;;;;;;;;4975884;28;20053;-66
2022/09/22 07:51:12;;;;;;;6.50;5.90;;;;;;;;;;4975983;28;20054;-66
2022/09/22 07:53:42;;;;;;;7.32;6.63;;;;;;;;;;4975795;28;20546;-66
2022/09/22 07:56:12;;;;;;;6.32;5.72;;;;;;;;;;4976070;28;20058;-66
2022/09/22 07:58:40;;;;;;;6.13;5.53;;;;;;;;;;4975695;28;20509;-66
2022/09/22 08:01:09;;;;;;;5.72;5.20;;;;;;;;;;4975938;28;20055;-66
2022/09/22 08:03:36;;;;;;;6.80;5.47;;;;;;;;;;4975895;28;20092;-66
2022/09/22 08:06:09;;;;;;;5.88;4.63;;;;;;;;;;4975678;28;20064;-66
2022/09/22 08:08:40;;;;;;;10.93;5.10;;;;;;;;;;4975387;28;20080;-66
2022/09/22 08:11:11;;;;;;;6.55;4.38;;;;;;;;;;4975524;28;20517;-66
2022/09/22 08:13:39;;;;;;;4.70;4.22;;;;;;;;;;4975413;28;20046;-66
2022/09/22 08:16:05;;;;;;;6.00;4.53;;;;;;;;;;4975461;28;20058;-66
2022/09/22 08:18:33;;;;;;;4.80;4.30;;;;;;;;;;4975717;28;20054;-66
2022/09/22 08:21:00;;;;;;;;;;;;;;;;;;4975673;28;20510;-66
2022/09/22 08:23:27;;;;;;;4.95;3.88;;;;;;;;;;4975324;28;20441;-66
2022/09/22 08:25:53;;;;;;;4.55;4.15;;;;;;;;;;4975031;28;20053;-66
2022/09/22 08:28:20;;;;;;;4.30;3.80;;;;;;;;;;4975523;28;20051;-66
2022/09/22 08:30:46;;;;;;;4.25;3.58;;;;;;;;;;4975377;28;20058;-66
2022/09/22 08:33:13;;;;;;;4.05;3.45;;;;;;;;;;4974152;28;20051;-66
2022/09/22 08:35:53;;;;;;;3.75;3.42;;;;;;;;;;4974975;28;20059;-66
2022/09/22 08:38:21;;;;;;;3.75;3.25;;;;;;;;;;4974946;28;20494;-66
2022/09/22 08:41:17;;;;;;;2.90;2.60;;;;;;;;;;4975133;28;20051;-66
2022/09/22 08:43:54;;;;;;;3.42;3.08;;;;;;;;;;4960536;28;20057;-66
2022/09/22 08:46:33;;;;;;;2.67;2.45;;;;;;;;;;4974837;28;20074;-66
2022/09/22 08:51:52;;;;;;;2.38;2.00;;;;;;;;;;4974794;28;20039;-66
2022/09/22 08:54:26;;;;;;;3.78;2.25;;;;;;;;;;4975120;28;20402;-66
2022/09/22 08:57:21;;;;;;;3.15;1.80;;;;;;;;;;4974663;28;20058;-66
2022/09/22 08:59:50;;;;;;;1.55;1.45;;;;;;;;;;4973329;28;20055;-66
2022/09/22 09:02:20;;;;;;;2.95;1.95;;;;;;;;;;4974541;28;20498;-66
2022/09/22 09:04:59;;;;;;;2.22;1.98;;;;;;;;;;4974642;28;20070;-66
2022/09/22 09:07:41;;;;;;;2.55;1.65;;;;;;;;;;4974202;28;20043;-66
2022/09/22 09:10:08;;;;;;;3.55;1.58;;;;;;;;;;4974464;28;20065;-66
2022/09/22 09:12:34;;;;;;;1.75;1.65;;;;;;;;;;4974420;28;20050;-66
2022/09/22 09:15:10;;;;;;;3.20;1.70;;;;;;;;;;4974474;28;20078;-66
2022/09/22 09:17:37;;;;;;;1.92;1.77;;;;;;;;;;4974519;28;20284;-66
2022/09/22 09:20:13;;;;;;;1.40;1.25;;;;;;;;;;4974550;28;20058;-66
2022/09/22 09:22:41;;;;;;;2.08;1.27;;;;;;;;;;4974457;28;20047;-66
2022/09/22 09:25:17;;;;;;;1.30;1.20;;;;;;;;;;4974239;28;20109;-66
2022/09/22 09:27:55;;;;;;;1.65;1.50;;;;;;;;;;4974255;28;20125;-66
2022/09/22 09:30:22;;;;;;;1.75;1.65;;;;;;;;;;4974151;28;20074;-66
2022/09/22 09:32:59;;;;;;;2.00;1.88;;;;;;;;;;4974014;28;20046;-66
2022/09/22 09:35:38;;;;;;;2.08;1.88;;;;;;;;;;4974432;28;20073;-66
2022/09/22 09:38:09;;;;;;;2.97;1.85;;;;;;;;;;4974016;28;20050;-66
2022/09/22 09:40:35;;;;;;;2.97;1.73;;;;;;;;;;4973927;28;20046;-66
2022/09/22 09:43:04;;;;;;;3.22;1.55;;;;;;;;;;4973799;28;20066;-66
2022/09/22 09:45:32;;;;;;;2.38;1.80;;;;;;;;;;4973363;28;20604;-66
2022/09/22 09:48:13;;;;;;;1.92;1.52;;;;;;;;;;4973670;28;20057;-66
2022/09/22 09:50:40;;;;;;;1.77;1.50;;;;;;;;;;4973604;28;20047;-66
2022/09/22 09:53:14;;;;;;;1.58;1.48;;;;;;;;;;4973945;28;20411;-66
2022/09/22 09:55:41;;;;;;;1.48;1.27;;;;;;;;;;4974001;28;20057;-66
2022/09/22 09:58:09;;;;;;;3.35;1.80;;;;;;;;;;4973877;28;20051;-66
2022/09/22 10:01:11;;;;;;;3.30;1.77;;;;;;;;;;4973671;28;20097;-66
2022/09/22 10:03:46;;;;;;;2.45;1.85;;;;;;;;;;4932548;29;20055;-66
2022/09/22 10:06:13;;;;;;;2.28;1.48;;;;;;;;;;4960689;28;20046;-66
2022/09/22 10:08:44;;;;;;;1.88;1.48;;;;;;;;;;4973262;28;20059;-66
2022/09/22 10:11:11;;;;;;;2.60;1.67;;;;;;;;;;4973685;28;20057;-66
2022/09/22 10:13:39;;;;;;;2.53;1.88;;;;;;;;;;4973218;28;20490;-66
2022/09/22 10:16:05;;;;;;;2.95;1.38;;;;;;;;;;4973255;28;20514;-66
2022/09/22 10:18:32;;;;;;;3.10;1.50;;;;;;;;;;4973288;28;20062;-66
2022/09/22 10:21:03;;;;;;;1.85;1.65;;;;;;;;;;4973473;28;20414;-66
2022/09/22 10:23:32;;;;;;;1.65;1.55;;;;;;;;;;4973215;28;20411;-66
2022/09/22 10:26:17;;;;;;;3.10;1.50;;;;;;;;;;4972923;28;20051;-66
2022/09/22 10:28:49;;;;;;;2.88;1.30;;;;;;;;;;4973204;28;20414;-66
2022/09/22 10:31:21;;;;;;;1.40;1.30;;;;;;;;;;4973389;28;20069;-66
2022/09/22 10:33:52;;;;;;;1.75;1.30;;;;;;;;;;4973198;28;20129;-66
2022/09/22 10:36:19;;;;;;;3.65;2.08;;;;;;;;;;4972950;28;20047;-66
2022/09/22 10:38:45;;;;;;;3.25;2.03;;;;;;;;;;4973238;28;20074;-66
2022/09/22 10:41:26;;;;;;;1.88;1.77;;;;;;;;;;4972847;28;20491;-66
2022/09/22 10:43:59;;;;;;;2.15;1.95;;;;;;;;;;4973106;28;20061;-66
2022/09/22 10:46:48;;;;;;;2.35;2.15;;;;;;;;;;4972838;28;20573;-66
2022/09/22 10:49:33;;;;;;;2.45;2.25;;;;;;;;;;4972864;28;20539;-66
2022/09/22 10:52:08;;;;;;;3.38;2.20;;;;;;;;;;4972750;28;20047;-66
2022/09/22 10:54:41;;;;;;;2.65;2.20;;;;;;;;;;4973035;28;20057;-66
2022/09/22 10:57:14;;;;;;;3.65;2.30;;;;;;;;;;4974320;28;20046;-66
2022/09/22 10:59:44;;;;;;;5.20;2.20;;;;;;;;;;4976873;28;20058;-66
2022/09/22 11:02:13;;;;;;;2.88;2.30;;;;;;;;;;4976929;28;20050;-66
2022/09/22 11:04:46;;;;;;;3.58;2.10;;;;;;;;;;4976702;28;20514;-66
2022/09/22 11:12:15;;;;;;;3.45;2.33;;;;;;;;;;4977225;28;20047;-66
2022/09/22 11:13:05;;;;;;;3.40;2.08;;;;;;;;;;4976822;28;20054;-66
2022/09/22 11:15:53;;;;;;;1.90;1.80;;;;;;;;;;4976546;28;20053;-66
2022/09/22 11:18:26;;;;;;;2.17;1.92;;;;;;;;;;4946891;28;20082;-66
2022/09/22 11:20:55;;;;;;;2.25;1.90;;;;;;;;;;4975177;28;20058;-66
2022/09/22 11:23:31;;;;;;;4.18;2.05;;;;;;;;;;4976669;28;20051;-66
2022/09/22 11:26:17;;;;;;;2.83;2.00;;;;;;;;;;4976227;28;20490;-66
2022/09/22 11:28:44;;;;;;;;;;;;;;;;;;4968957;28;20406;-66
2022/09/22 11:31:17;;;;;;;3.40;2.08;;;;;;;;;;4976255;28;20293;-66
2022/09/22 11:33:49;;;;;;;3.53;2.20;;;;;;;;;;4976502;28;20051;-66
2022/09/22 11:36:45;;;;;;;4.45;2.50;;;;;;;;;;4976292;28;20061;-66
2022/09/22 11:39:18;;;;;;;2.95;2.20;;;;;;;;;;4968700;28;20055;-66
2022/09/22 11:41:59;;;;;;;4.13;2.25;;;;;;;;;;4976036;28;20503;-66
2022/09/22 11:44:35;;;;;;;2.88;2.05;;;;;;;;;;4976325;28;20065;-66
2022/09/22 11:47:01;;;;;;;2.35;1.90;;;;;;;;;;4976251;28;20053;-66
2022/09/22 11:49:44;;;;;;;2.75;2.25;;;;;;;;;;4976192;28;20410;-66
2022/09/22 11:52:22;;;;;;;4.72;2.15;;;;;;;;;;4975962;28;20406;-66
2022/09/22 11:55:13;;;;;;;2.10;1.90;;;;;;;;;;4976121;28;20051;-66
2022/09/22 11:57:41;;;;;;;2.30;2.03;;;;;;;;;;4976107;28;20058;-66
2022/09/22 12:00:11;;;;;;;2.80;1.92;;;;;;;;;;4975876;28;20054;-66
2022/09/22 12:02:38;;;;;;;3.03;2.20;;;;;;;;;;4975698;28;20051;-66
2022/09/22 12:05:12;;;;;;;3.03;2.13;;;;;;;;;;4975972;28;20055;-66
2022/09/22 12:07:52;;;;;;;4.35;2.40;;;;;;;;;;4975274;28;20301;-66
2022/09/22 12:10:31;;;;;;;3.20;2.30;;;;;;;;;;4975713;28;20081;-66
2022/09/22 12:12:57;;;;;;;4.35;2.40;;;;;;;;;;4975557;28;20406;-66
2022/09/22 12:15:30;;;;;;;2.58;1.98;;;;;;;;;;4975815;28;20152;-66
2022/09/22 12:18:00;;;;;;;3.58;1.85;;;;;;;;;;4975621;28;20065;-66
2022/09/22 12:20:27;;;;;;;2.90;2.38;;;;;;;;;;4975481;28;20055;-66
2022/09/22 12:23:03;;;;;;;3.37;2.20;;;;;;;;;;4975650;28;20046;-66
2022/09/22 12:25:45;;;;;;;2.15;1.75;;;;;;;;;;4975158;28;20281;-67
2022/09/22 12:28:16;;;;;;;2.83;2.08;;;;;;;;;;4975376;28;20047;-66
2022/09/22 12:30:55;;;;;;;3.13;2.03;;;;;;;;;;4975388;28;20061;-66
2022/09/22 12:33:21;;;;;;;3.53;2.10;;;;;;;;;;4975139;28;20468;-66
2022/09/22 12:35:53;;;;;;;2.60;2.00;;;;;;;;;;4974980;28;20514;-66
2022/09/22 12:38:20;;;;;;;3.97;2.10;;;;;;;;;;4975010;28;20055;-66
2022/09/22 12:40:48;;;;;;;3.08;1.90;;;;;;;;;;4975140;28;20053;-66
2022/09/22 12:43:18;;;;;;;2.35;1.70;;;;;;;;;;4975575;28;20050;-66
2022/09/22 12:45:45;;;;;;;2.67;2.10;;;;;;;;;;4975010;28;20051;-66
2022/09/22 12:48:11;;;;;;;4.88;2.05;;;;;;;;;;4974802;28;20502;-66
2022/09/22 12:50:39;;;;;;;3.88;2.22;;;;;;;;;;4974748;28;20065;-66
2022/09/22 12:53:10;;;;;;;2.35;2.10;;;;;;;;;;4974967;28;20053;-66
2022/09/22 12:55:40;;;;;;;3.05;2.00;;;;;;;;;;4975032;28;20054;-66
2022/09/22 12:58:22;;;;;;;2.45;1.90;;;;;;;;;;4974713;28;20058;-66
2022/09/22 13:00:52;;;;;;;1.63;1.52;;;;;;;;;;4974713;28;20061;-66
2022/09/22 13:03:25;;;;;;;1.88;1.67;;;;;;;;;;4974888;28;20085;-66
2022/09/22 13:05:58;;;;;;;4.85;2.17;;;;;;;;;;4974755;28;20447;-66
2022/09/22 13:08:35;;;;;;;3.45;1.83;;;;;;;;;;4974181;28;20086;-66
2022/09/22 13:11:01;;;;;;;;;;;;;;;;;;4975252;28;20403;-66
2022/09/22 13:13:28;;;;;;;3.55;1.70;;;;;;;;;;4974413;28;20392;-66
2022/09/22 13:15:56;;;;;;;2.08;1.85;;;;;;;;;;4974640;28;20420;-66
2022/09/22 13:18:32;;;;;;;1.58;1.42;;;;;;;;;;4974335;28;20070;-66
2022/09/22 13:20:59;;;;;;;2.95;1.40;;;;;;;;;;4972489;28;20046;-66
2022/09/22 13:23:25;;;;;;;2.25;1.75;;;;;;;;;;4974267;28;20054;-66
2022/09/22 13:25:52;;;;;;;1.15;1.15;;;;;;;;;;4974075;28;20486;-66
2022/09/22 13:28:23;;;;;;;1.70;1.52;;;;;;;;;;4974314;28;20105;-66
2022/09/22 13:31:00;;;;;;;1.90;1.70;;;;;;;;;;4974015;28;20050;-66
2022/09/22 13:33:32;;;;;;;1.45;1.35;;;;;;;;;;4974196;28;20054;-66
2022/09/22 13:36:05;;;;;;;2.00;1.60;;;;;;;;;;4973975;28;20069;-66
2022/09/22 13:38:33;;;;;;;2.00;1.60;;;;;;;;;;4974374;28;20399;-66
2022/09/22 13:40:59;;;;;;;8.48;2.58;;;;;;;;;;4973966;28;20057;-66
2022/09/22 13:43:33;;;;;;;4.95;1.65;;;;;;;;;;4973995;28;20046;-66
2022/09/22 13:46:00;;;;;;;3.80;1.45;;;;;;;;;;4974015;28;20077;-66
2022/09/22 13:48:26;;;;;;;;;;;;;;;;;;4974470;28;20516;-66
2022/09/22 13:50:59;;;;;;;2.45;1.75;;;;;;;;;;4973838;28;19949;-66
2022/09/22 13:53:25;;;;;;;3.42;1.67;;;;;;;;;;4973889;28;20055;-66
2022/09/22 13:55:52;;;;;;;5.30;2.08;;;;;;;;;;4973862;28;20051;-66
2022/09/22 13:58:29;;;;;;;1.98;1.60;;;;;;;;;;4974020;28;20054;-66
2022/09/22 14:00:57;;;;;;;2.42;1.58;;;;;;;;;;4973456;28;20062;-66
2022/09/22 14:03:40;;;;;;;1.73;1.50;;;;;;;;;;4973682;28;20074;-66
2022/09/22 14:06:13;;;;;;;1.60;1.40;;;;;;;;;;4973471;28;20054;-66
2022/09/22 14:08:41;;;;;;;1.83;1.23;;;;;;;;;;4973210;28;20059;-66
2022/09/22 14:11:12;;;;;;;1.73;1.40;;;;;;;;;;4973527;28;20050;-66
2022/09/22 14:13:58;;;;;;;1.58;1.40;;;;;;;;;;4973302;28;20414;-66
2022/09/22 14:16:25;;;;;;;2.03;1.48;;;;;;;;;;4973389;28;20097;-66
2022/09/22 14:19:03;;;;;;;1.58;1.10;;;;;;;;;;4973227;28;20055;-66
2022/09/22 14:21:39;;;;;;;1.38;1.30;;;;;;;;;;4973602;28;20052;-66
2022/09/22 14:24:05;;;;;;;1.65;1.40;;;;;;;;;;4973401;28;20407;-66
2022/09/22 14:26:34;;;;;;;2.35;1.63;;;;;;;;;;4973601;28;20058;-66
2022/09/22 14:29:27;;;;;;;1.67;1.58;;;;;;;;;;4973234;28;20475;-66
2022/09/22 14:32:05;;;;;;;2.33;1.60;;;;;;;;;;4971209;28;20046;-66
2022/09/22 14:34:38;;;;;;;3.40;1.80;;;;;;;;;;4973100;28;20145;-66
2022/09/22 14:37:19;;;;;;;1.70;1.60;;;;;;;;;;4973225;28;20055;-66
2022/09/22 14:39:46;;;;;;;3.70;3.38;;;;;;;;;;4973133;28;20058;-66
2022/09/22 14:42:17;;;;;;;2.47;1.73;;;;;;;;;;4973082;28;20057;-66
2022/09/22 14:44:45;;;;;;;2.50;1.75;;;;;;;;;;4972828;28;20494;-66
2022/09/22 14:47:14;;;;;;;2.42;1.80;;;;;;;;;;4972824;28;20069;-66
2022/09/22 14:49:42;;;;;;;2.38;1.67;;;;;;;;;;4973029;28;20063;-66
2022/09/22 14:52:28;;;;;;;1.48;1.38;;;;;;;;;;4972867;28;20049;-66
2022/09/22 14:54:56;;;;;;;1.80;1.30;;;;;;;;;;4972724;28;20055;-66
2022/09/22 14:57:24;;;;;;;3.38;2.65;;;;;;;;;;4973015;28;20100;-66
2022/09/22 15:02:43;;;;;;;2.58;1.92;;;;;;;;;;4972780;28;20055;-66
2022/09/22 15:05:22;;;;;;;1.80;1.45;;;;;;;;;;4972985;28;20058;-66
2022/09/22 15:07:54;;;;;;;1.58;1.48;;;;;;;;;;4972486;28;20790;-66
2022/09/22 15:10:24;;;;;;;2.38;1.73;;;;;;;;;;4972929;28;20065;-66
2022/09/22 15:12:51;;;;;;;1.60;1.50;;;;;;;;;;4972883;28;20419;-66
2022/09/22 15:15:17;;;;;;;2.22;1.75;;;;;;;;;;4972805;28;20053;-66